Terminal Aerodrome Forecast
Issued by NWS

Current Version | Previous Version | Text Only | Print | Product List | Glossary On
Versions: 1 2 3 4 5 6 7 8 9 10 11 12 13
468
FTUS42 KTBW 231120
TAFPIE
TAF
KPIE 231120Z 2312/2412 06006KT P6SM SCT070 SCT200
     FM231500 07008KT P6SM FEW025 SCT070
     FM231800 08010KT P6SM VCSH SCT025 BKN050
     FM232300 07013G19KT P6SM SCT025 BKN050
     FM240200 08014G20KT P6SM SCT030 SCT250
     FM240600 08011KT P6SM FEW020 SCT250=

USA.gov is the U.S. government's official web portal to all federal, state and local government web resources and services.